Time;durP1;ratioP1;P1;durP2;ratioP2;P2;SDS_P1;SDS_P2;PMS_P1;PMS_P2;Temp;Humidity;BMP_temperature;BMP_pressure;BME280_temperature;BME280_humidity;BME280_pressure;Samples;Min_cycle;Max_cycle;Signal;HPM_P1;HPM_P2
2023/08/09 00:00:56;;;;;;;1.67;1.57;;;;;15.20;96925.00;;;;5046694;28;20223;-72
2023/08/09 00:03:46;;;;;;;1.23;1.13;;;;;15.50;96929.00;;;;5048360;28;20208;-72
2023/08/09 00:06:35;;;;;;;1.93;0.97;;;;;15.50;96939.00;;;;5056068;28;20745;-72
2023/08/09 00:09:24;;;;;;;1.50;1.00;;;;;15.50;96936.00;;;;5064422;23;20237;-71
2023/08/09 00:12:13;;;;;;;1.50;1.20;;;;;15.20;96932.00;;;;4998165;28;20678;-71
2023/08/09 00:15:02;;;;;;;4.23;1.17;;;;;14.90;96932.00;;;;5005325;28;20205;-71
2023/08/09 00:17:51;;;;;;;1.63;1.23;;;;;14.80;96938.00;;;;5004821;28;20209;-71
2023/08/09 00:20:42;;;;;;;1.40;1.27;;;;;15.30;96943.00;;;;5005160;28;20230;-72
2023/08/09 00:23:31;;;;;;;1.33;1.23;;;;;15.40;96940.00;;;;5003612;28;20198;-71
2023/08/09 00:26:20;;;;;;;2.73;2.53;;;;;15.30;96938.00;;;;5004640;28;20225;-71
2023/08/09 00:29:09;;;;;;;4.77;1.27;;;;;15.20;96937.00;;;;4997574;28;20214;-71
2023/08/09 00:31:58;;;;;;;3.63;1.20;;;;;15.30;96941.00;;;;5001910;28;20208;-71
2023/08/09 00:34:47;;;;;;;1.43;1.27;;;;;15.30;96941.00;;;;5004393;28;20205;-71
2023/08/09 00:37:39;;;;;;;1.93;1.40;;;;;15.20;96939.00;;;;5000967;28;20714;-71
2023/08/09 00:40:28;;;;;;;1.17;1.10;;;;;15.30;96947.00;;;;5008296;28;20225;-71
2023/08/09 00:43:17;;;;;;;2.47;1.30;;;;;15.10;96944.00;;;;5006432;28;20206;-71
2023/08/09 00:46:06;;;;;;;4.00;1.03;;;;;14.90;96944.00;;;;5007076;28;20717;-71
2023/08/09 00:48:55;;;;;;;1.30;1.17;;;;;15.00;96942.00;;;;5003523;28;20214;-71
2023/08/09 00:51:44;;;;;;;1.10;1.00;;;;;15.10;96935.00;;;;5001925;28;20887;-71
2023/08/09 00:54:35;;;;;;;5.20;1.27;;;;;15.00;96948.00;;;;4996389;28;20198;-71
2023/08/09 00:57:24;;;;;;;1.47;1.37;;;;;15.10;96949.00;;;;5003899;28;20682;-71
2023/08/09 01:00:14;;;;;;;4.23;1.20;;;;;14.80;96946.00;;;;5002715;28;20234;-71
2023/08/09 01:03:04;;;;;;;1.30;1.20;;;;;14.70;96942.00;;;;5004264;28;20692;-71
2023/08/09 01:06:01;;;;;;;2.23;1.20;;;;;14.60;96933.00;;;;5004986;28;20229;-71
2023/08/09 01:08:55;;;;;;;4.17;1.30;;;;;14.60;96933.00;;;;5007244;28;20210;-71
2023/08/09 01:11:50;;;;;;;1.40;1.03;;;;;14.30;96935.00;;;;5021206;28;20208;-71
2023/08/09 01:14:42;;;;;;;2.73;1.27;;;;;14.10;96939.00;;;;5019930;28;20588;-71
2023/08/09 01:17:33;;;;;;;2.67;1.53;;;;;14.20;96942.00;;;;5021839;28;20205;-71
2023/08/09 01:20:23;;;;;;;1.30;1.13;;;;;14.20;96936.00;;;;5026139;28;20224;-71
2023/08/09 01:23:16;;;;;;;1.20;0.90;;;;;14.10;96929.00;;;;5020777;28;20210;-71
2023/08/09 01:26:06;;;;;;;5.30;1.60;;;;;14.40;96929.00;;;;5021781;28;20229;-71
2023/08/09 01:28:55;;;;;;;1.30;1.20;;;;;14.70;96937.00;;;;5028232;28;20703;-71
2023/08/09 01:31:44;;;;;;;1.93;1.23;;;;;14.70;96933.00;;;;5027050;28;21027;-71
2023/08/09 01:34:34;;;;;;;2.07;1.13;;;;;14.70;96933.00;;;;5026383;28;20208;-71
2023/08/09 01:37:28;;;;;;;1.03;0.87;;;;;14.80;96931.00;;;;5024584;28;20225;-71
2023/08/09 01:40:18;;;;;;;1.60;1.10;;;;;14.80;96927.00;;;;5026342;28;20232;-71
2023/08/09 01:43:09;;;;;;;2.33;1.00;;;;;14.70;96917.00;;;;5024409;28;20198;-71
2023/08/09 01:45:59;;;;;;;1.20;1.10;;;;;14.90;96932.00;;;;5024370;28;20232;-70
2023/08/09 01:48:48;;;;;;;0.90;0.90;;;;;14.80;96919.00;;;;5027850;28;20209;-71
2023/08/09 01:51:37;;;;;;;2.13;1.03;;;;;14.80;96926.00;;;;5029893;28;20212;-71
2023/08/09 01:54:26;;;;;;;3.10;1.20;;;;;14.70;96925.00;;;;5023994;28;20201;-71
2023/08/09 01:57:15;;;;;;;2.53;0.90;;;;;14.50;96926.00;;;;5022831;28;20201;-72
2023/08/09 02:00:08;;;;;;;1.87;1.20;;;;;14.50;96921.00;;;;5023442;28;20612;-71
2023/08/09 02:02:58;;;;;;;4.23;1.07;;;;;14.70;96920.00;;;;5027420;28;20209;-71
2023/08/09 02:05:47;;;;;;;2.47;1.43;;;;;14.80;96922.00;;;;5024738;28;20688;-71
2023/08/09 02:08:36;;;;;;;2.27;1.07;;;;;14.50;96924.00;;;;5027126;28;20205;-71
2023/08/09 02:11:25;;;;;;;1.30;1.20;;;;;14.60;96926.00;;;;5029619;28;20201;-71
2023/08/09 02:14:14;;;;;;;1.73;1.00;;;;;14.60;96927.00;;;;5029408;28;20676;-71
2023/08/09 02:17:05;;;;;;;2.70;1.90;;;;;14.70;96922.00;;;;5027856;28;20198;-71
2023/08/09 02:19:54;;;;;;;2.87;1.10;;;;;14.90;96917.00;;;;5026834;28;20229;-71
2023/08/09 02:22:44;;;;;;;2.80;1.50;;;;;14.80;96919.00;;;;5026033;28;20205;-71
2023/08/09 02:25:33;;;;;;;1.27;1.20;;;;;14.50;96926.00;;;;5021527;28;20228;-71
2023/08/09 02:28:22;;;;;;;1.47;1.30;;;;;14.60;96919.00;;;;5026240;28;20296;-71
2023/08/09 02:31:11;;;;;;;1.83;1.37;;;;;14.60;96916.00;;;;5029667;28;20201;-71
2023/08/09 02:34:02;;;;;;;2.50;1.20;;;;;14.30;96903.00;;;;5027605;28;20716;-71
2023/08/09 02:36:51;;;;;;;2.07;1.53;;;;;14.60;96918.00;;;;5026504;28;20251;-71
2023/08/09 02:39:40;;;;;;;1.70;1.23;;;;;14.30;96914.00;;;;5025310;28;20248;-71
2023/08/09 02:42:29;;;;;;;2.50;1.27;;;;;14.20;96912.00;;;;5026506;28;20592;-71
2023/08/09 02:45:19;;;;;;;4.97;1.73;;;;;14.00;96920.00;;;;5020956;28;20209;-71
2023/08/09 02:48:08;;;;;;;6.23;1.13;;;;;14.00;96929.00;;;;5025976;28;20685;-71
2023/08/09 02:50:59;;;;;;;1.23;1.13;;;;;14.00;96915.00;;;;5026488;28;20225;-70
2023/08/09 02:54:06;;;;;;;1.73;1.40;;;;;13.90;96915.00;;;;5022675;28;20201;-71
2023/08/09 02:56:55;;;;;;;1.97;1.07;;;;;14.10;96918.00;;;;5023725;28;20201;-71
2023/08/09 02:59:44;;;;;;;1.67;1.07;;;;;13.80;96911.00;;;;5023563;28;20727;-71
2023/08/09 03:02:33;;;;;;;1.93;1.43;;;;;14.00;96915.00;;;;5020475;28;20205;-71
2023/08/09 03:05:22;;;;;;;1.37;1.27;;;;;14.10;96918.00;;;;5025879;28;20212;-71
2023/08/09 03:08:13;;;;;;;2.03;1.40;;;;;14.10;96922.00;;;;5020055;28;20221;-71
2023/08/09 03:11:02;;;;;;;1.57;1.37;;;;;13.70;96917.00;;;;5024808;28;20217;-71
2023/08/09 03:13:52;;;;;;;4.57;1.40;;;;;13.50;96911.00;;;;5022638;28;20668;-70
2023/08/09 03:16:41;;;;;;;3.37;1.20;;;;;13.70;96917.00;;;;5026056;28;20205;-71
2023/08/09 03:19:30;;;;;;;4.30;1.63;;;;;13.70;96926.00;;;;5021225;28;20690;-71
2023/08/09 03:22:19;;;;;;;5.17;1.30;;;;;13.90;96922.00;;;;5025416;28;20202;-71
2023/08/09 03:25:10;;;;;;;7.20;1.57;;;;;13.90;96923.00;;;;5022104;28;20205;-70
2023/08/09 03:27:59;;;;;;;3.40;1.63;;;;;13.80;96920.00;;;;5023906;28;20575;-71
2023/08/09 03:30:48;;;;;;;1.50;1.40;;;;;14.00;96921.00;;;;5023061;28;20225;-71
2023/08/09 03:33:37;;;;;;;1.43;1.20;;;;;14.40;96919.00;;;;5028387;28;20205;-71
2023/08/09 03:36:26;;;;;;;1.47;1.37;;;;;14.30;96930.00;;;;5027822;28;20197;-71
2023/08/09 03:39:15;;;;;;;2.87;1.33;;;;;13.90;96926.00;;;;5023052;28;20237;-71
2023/08/09 03:42:06;;;;;;;2.43;1.93;;;;;13.80;96932.00;;;;5025373;28;20208;-71
2023/08/09 03:44:55;;;;;;;4.13;1.60;;;;;13.90;96925.00;;;;5019759;28;20213;-71
2023/08/09 03:47:44;;;;;;;3.63;1.60;;;;;14.10;96926.00;;;;5022439;28;20225;-71
2023/08/09 03:50:33;;;;;;;3.60;1.53;;;;;14.40;96917.00;;;;5020976;28;20225;-71
2023/08/09 03:53:23;;;;;;;4.33;1.63;;;;;14.10;96918.00;;;;5023888;28;20205;-71
2023/08/09 03:56:12;;;;;;;4.60;1.43;;;;;14.00;96912.00;;;;5024684;28;20204;-70
2023/08/09 03:59:03;;;;;;;5.70;1.63;;;;;13.80;96917.00;;;;5024654;28;20225;-71
2023/08/09 04:01:52;;;;;;;2.60;1.50;;;;;13.90;96913.00;;;;5025798;28;20213;-71
2023/08/09 04:04:41;;;;;;;2.57;1.77;;;;;14.20;96912.00;;;;5022016;28;20206;-71
2023/08/09 04:07:30;;;;;;;3.37;2.07;;;;;14.10;96912.00;;;;5022454;28;20225;-70
2023/08/09 04:10:19;;;;;;;5.83;2.03;;;;;13.70;96924.00;;;;5028078;28;20596;-70
2023/08/09 04:13:08;;;;;;;3.43;1.73;;;;;13.40;96918.00;;;;5026051;28;20213;-70
2023/08/09 04:15:58;;;;;;;6.73;2.03;;;;;13.60;96916.00;;;;5016919;28;20205;-70
2023/08/09 04:18:47;;;;;;;1.63;1.53;;;;;13.60;96918.00;;;;5015346;28;20217;-70
2023/08/09 04:21:37;;;;;;;2.87;2.07;;;;;13.80;96918.00;;;;5019681;28;20213;-70
2023/08/09 04:24:27;;;;;;;4.07;1.30;;;;;13.70;96919.00;;;;5027122;28;20205;-71
2023/08/09 04:27:16;;;;;;;2.47;1.50;;;;;13.90;96924.00;;;;5019994;28;20700;-71
2023/08/09 04:30:09;;;;;;;2.63;1.67;;;;;14.10;96929.00;;;;5022940;28;20248;-71
2023/08/09 04:33:00;;;;;;;2.13;1.50;;;;;13.80;96931.00;;;;5020261;28;20206;-71
2023/08/09 04:35:49;;;;;;;2.20;1.60;;;;;14.00;96931.00;;;;5021620;28;20225;-70
2023/08/09 04:38:38;;;;;;;2.20;2.00;;;;;14.20;96930.00;;;;5022187;28;20201;-71
2023/08/09 04:41:27;;;;;;;2.90;1.33;;;;;14.20;96926.00;;;;5027067;28;20728;-70
2023/08/09 04:44:16;;;;;;;1.50;1.40;;;;;13.80;96923.00;;;;5012370;28;20217;-71
2023/08/09 04:47:06;;;;;;;2.50;1.20;;;;;13.90;96932.00;;;;5027577;28;20594;-70
2023/08/09 04:49:57;;;;;;;1.80;1.50;;;;;14.30;96929.00;;;;5019237;28;20221;-70
2023/08/09 04:52:46;;;;;;;2.60;1.97;;;;;14.50;96924.00;;;;5022127;28;20217;-70
2023/08/09 04:55:35;;;;;;;4.60;1.90;;;;;14.50;96929.00;;;;5016472;28;20273;-71
2023/08/09 04:58:24;;;;;;;2.33;1.93;;;;;14.50;96931.00;;;;5020676;28;20213;-70
2023/08/09 05:01:13;;;;;;;1.57;1.30;;;;;14.60;96930.00;;;;5018663;28;20607;-70
2023/08/09 05:04:02;;;;;;;3.20;1.73;;;;;14.80;96919.00;;;;5026501;28;20208;-70
2023/08/09 05:06:53;;;;;;;3.83;3.37;;;;;14.60;96930.00;;;;5020852;28;20240;-70
2023/08/09 05:09:42;;;;;;;3.57;1.43;;;;;14.80;96926.00;;;;5016598;28;20725;-70
2023/08/09 05:12:31;;;;;;;3.60;2.03;;;;;14.80;96927.00;;;;5022980;28;20214;-70
2023/08/09 05:15:20;;;;;;;2.43;1.40;;;;;14.70;96930.00;;;;5019156;28;20201;-70
2023/08/09 05:18:09;;;;;;;5.10;1.63;;;;;14.60;96925.00;;;;5018538;28;20217;-70
2023/08/09 05:20:59;;;;;;;3.63;1.60;;;;;14.70;96930.00;;;;5016474;28;20230;-71
2023/08/09 05:23:49;;;;;;;4.70;2.07;;;;;14.80;96933.00;;;;5025853;28;20700;-71
2023/08/09 05:26:38;;;;;;;2.20;1.50;;;;;15.10;96926.00;;;;5017988;28;20216;-71
2023/08/09 05:29:27;;;;;;;2.27;1.57;;;;;15.20;96919.00;;;;5029974;28;20221;-71
2023/08/09 05:32:16;;;;;;;2.27;2.07;;;;;15.20;96919.00;;;;5030171;28;20700;-72
2023/08/09 05:35:06;;;;;;;3.17;1.90;;;;;15.30;96920.00;;;;5024296;28;20696;-71
2023/08/09 05:37:55;;;;;;;2.23;1.63;;;;;15.50;96916.00;;;;5019578;28;20308;-71
2023/08/09 05:40:45;;;;;;;3.77;2.73;;;;;15.60;96914.00;;;;5025211;28;20230;-70
2023/08/09 05:43:34;;;;;;;2.83;2.13;;;;;15.80;96914.00;;;;5019927;28;20209;-70
2023/08/09 05:46:23;;;;;;;1.80;1.70;;;;;15.80;96903.00;;;;5025771;28;20704;-70
2023/08/09 05:49:12;;;;;;;4.63;2.03;;;;;15.80;96902.00;;;;5029882;28;20221;-70
2023/08/09 05:52:01;;;;;;;4.80;2.43;;;;;15.80;96909.00;;;;5024598;28;20213;-71
2023/08/09 05:54:50;;;;;;;2.77;2.17;;;;;15.80;96919.00;;;;5027880;28;20212;-70
2023/08/09 05:57:41;;;;;;;2.20;1.87;;;;;15.80;96910.00;;;;5022291;28;20194;-70
2023/08/09 06:00:30;;;;;;;3.83;2.03;;;;;15.80;96917.00;;;;5023753;28;20332;-70
2023/08/09 06:03:20;;;;;;;2.43;1.77;;;;;16.20;96921.00;;;;5021584;28;20284;-70
2023/08/09 06:06:10;;;;;;;3.87;2.20;;;;;16.30;96925.00;;;;5025765;28;20198;-71
2023/08/09 06:09:05;;;;;;;3.00;2.00;;;;;16.50;96918.00;;;;5025671;28;20236;-71
2023/08/09 06:11:46;;;;;;;2.93;1.80;;;;;16.40;96916.00;;;;5056657;28;20651;-66
2023/08/09 06:14:36;;;;;;;5.80;2.43;;;;;16.20;96917.00;;;;5078139;28;20234;-67
2023/08/09 06:17:25;;;;;;;4.00;2.50;;;;;16.40;96916.00;;;;5072958;28;20211;-67
2023/08/09 06:20:14;;;;;;;6.70;2.37;;;;;16.50;96911.00;;;;5111343;28;20217;-67
2023/08/09 06:23:03;;;;;;;5.00;2.57;;;;;16.60;96915.00;;;;5123362;28;20202;-67
2023/08/09 06:25:52;;;;;;;2.47;2.03;;;;;16.80;96927.00;;;;5124246;28;20665;-68
2023/08/09 06:28:42;;;;;;;2.63;2.07;;;;;16.80;96917.00;;;;5123372;28;20286;-67
2023/08/09 06:31:31;;;;;;;6.00;1.93;;;;;16.80;96916.00;;;;5120891;28;20233;-67
2023/08/09 06:34:20;;;;;;;8.60;2.60;;;;;17.00;96924.00;;;;5119760;28;20673;-68
2023/08/09 06:37:09;;;;;;;3.77;2.40;;;;;17.20;96923.00;;;;5120791;28;20692;-67
2023/08/09 06:39:59;;;;;;;2.93;2.53;;;;;17.30;96918.00;;;;5118888;28;20233;-67
2023/08/09 06:42:48;;;;;;;6.33;2.50;;;;;17.50;96922.00;;;;5118526;28;20198;-67
2023/08/09 06:45:39;;;;;;;5.40;2.73;;;;;17.90;96923.00;;;;5118888;28;20206;-67
2023/08/09 06:48:29;;;;;;;3.97;2.40;;;;;18.20;96919.00;;;;5119157;28;20198;-67
2023/08/09 06:51:19;;;;;;;4.13;3.43;;;;;18.10;96919.00;;;;5122833;28;20279;-67
2023/08/09 06:54:08;;;;;;;7.10;4.70;;;;;18.00;96924.00;;;;5118952;28;20209;-67
2023/08/09 06:56:57;;;;;;;5.20;2.77;;;;;17.80;96915.00;;;;5112324;28;20309;-68
2023/08/09 06:59:47;;;;;;;3.87;2.80;;;;;17.80;96910.00;;;;5119045;28;20233;-67
2023/08/09 07:02:37;;;;;;;8.27;3.13;;;;;18.50;96912.00;;;;5113370;28;20206;-67
2023/08/09 07:05:26;;;;;;;4.50;2.87;;;;;18.40;96909.00;;;;5118180;28;20210;-67
2023/08/09 07:08:15;;;;;;;4.67;2.67;;;;;18.90;96914.00;;;;5116780;28;20199;-67
2023/08/09 07:11:04;;;;;;;4.80;2.83;;;;;18.90;96919.00;;;;5117281;28;20230;-67
2023/08/09 07:13:53;;;;;;;7.10;2.80;;;;;18.70;96912.00;;;;5116394;28;20198;-67
2023/08/09 07:16:42;;;;;;;5.17;2.87;;;;;19.20;96907.00;;;;5119583;28;20205;-67
2023/08/09 07:19:33;;;;;;;4.53;2.43;;;;;19.40;96906.00;;;;5117047;28;20225;-67
2023/08/09 07:22:22;;;;;;;3.60;2.07;;;;;19.40;96911.00;;;;5113138;28;20191;-67
2023/08/09 07:25:13;;;;;;;6.30;2.70;;;;;19.70;96914.00;;;;5108635;28;20631;-67
2023/08/09 07:28:02;;;;;;;6.97;3.27;;;;;19.60;96908.00;;;;5107820;28;20689;-67
2023/08/09 07:30:52;;;;;;;5.17;2.73;;;;;19.80;96902.00;;;;5103978;28;20226;-67
2023/08/09 07:33:41;;;;;;;3.90;3.00;;;;;19.90;96899.00;;;;5103046;28;20199;-67
2023/08/09 07:36:31;;;;;;;5.20;2.47;;;;;20.20;96893.00;;;;5108489;28;20214;-68
2023/08/09 07:39:22;;;;;;;9.93;3.73;;;;;20.50;96896.00;;;;5108557;28;20202;-67
2023/08/09 07:42:11;;;;;;;5.10;2.80;;;;;20.60;96882.00;;;;5103896;28;20260;-68
2023/08/09 07:45:00;;;;;;;3.93;2.20;;;;;20.60;96889.00;;;;5105868;28;20202;-68
2023/08/09 07:47:49;;;;;;;3.73;2.70;;;;;20.30;96891.00;;;;5104391;28;20207;-69
2023/08/09 07:50:38;;;;;;;3.13;2.47;;;;;20.80;96891.00;;;;5100066;28;20790;-67
2023/08/09 07:53:28;;;;;;;3.50;2.10;;;;;20.80;96894.00;;;;5099626;28;20587;-67
2023/08/09 07:56:17;;;;;;;5.67;2.87;;;;;21.20;96895.00;;;;5101361;28;20584;-68
2023/08/09 07:59:06;;;;;;;6.73;2.90;;;;;20.90;96893.00;;;;5099932;28;20906;-68
2023/08/09 08:01:55;;;;;;;13.37;4.63;;;;;21.00;96892.00;;;;5104573;28;20573;-68
2023/08/09 08:04:45;;;;;;;11.20;3.00;;;;;20.80;96892.00;;;;5096976;28;20203;-68
2023/08/09 08:07:34;;;;;;;4.70;2.73;;;;;20.90;96892.00;;;;5101777;28;20208;-70
2023/08/09 08:10:24;;;;;;;3.53;2.77;;;;;21.00;96884.00;;;;5104709;28;20718;-68
2023/08/09 08:13:14;;;;;;;5.27;2.47;;;;;21.20;96883.00;;;;5092359;28;20207;-68
2023/08/09 08:16:04;;;;;;;6.07;2.57;;;;;21.20;96889.00;;;;5092415;28;20206;-67
2023/08/09 08:18:53;;;;;;;8.70;3.47;;;;;21.50;96886.00;;;;5089967;28;20227;-68
2023/08/09 08:21:42;;;;;;;4.17;2.87;;;;;21.10;96889.00;;;;5096594;28;20225;-68
2023/08/09 08:24:31;;;;;;;7.23;2.30;;;;;21.20;96898.00;;;;5102369;28;20199;-68
2023/08/09 08:27:21;;;;;;;7.13;2.27;;;;;21.20;96890.00;;;;5107536;28;20199;-68
2023/08/09 08:30:12;;;;;;;6.60;3.00;;;;;21.30;96906.00;;;;5103398;28;20225;-67
2023/08/09 08:33:02;;;;;;;4.57;2.57;;;;;21.50;96908.00;;;;5101117;28;20268;-68
2023/08/09 08:35:51;;;;;;;5.47;2.73;;;;;21.60;96910.00;;;;5101207;28;20203;-68
2023/08/09 08:38:44;;;;;;;3.47;2.50;;;;;21.50;96905.00;;;;5099810;28;20207;-68
2023/08/09 08:41:34;;;;;;;5.30;2.57;;;;;21.70;96905.00;;;;5105210;28;20219;-68
2023/08/09 08:44:25;;;;;;;5.20;2.90;;;;;21.60;96914.00;;;;5100506;28;20198;-68
2023/08/09 08:47:14;;;;;;;7.60;4.30;;;;;21.70;96915.00;;;;5101150;28;20243;-68
2023/08/09 08:50:03;;;;;;;12.33;2.87;;;;;21.70;96911.00;;;;5101334;27;20226;-68
2023/08/09 08:52:53;;;;;;;5.87;2.07;;;;;21.70;96915.00;;;;5101778;28;20222;-67
2023/08/09 08:55:43;;;;;;;7.30;2.50;;;;;21.70;96915.00;;;;5107898;28;20210;-68
2023/08/09 08:58:32;;;;;;;4.47;2.03;;;;;21.70;96907.00;;;;5109036;28;20209;-68
2023/08/09 09:01:24;;;;;;;4.37;2.47;;;;;21.80;96906.00;;;;5105942;28;20846;-68
2023/08/09 09:04:13;;;;;;;6.63;2.60;;;;;22.10;96918.00;;;;5107824;28;20635;-68
2023/08/09 09:07:02;;;;;;;2.93;1.97;;;;;22.10;96920.00;;;;5108132;28;20210;-68
2023/08/09 09:10:02;;;;;;;3.17;2.17;;;;;22.30;96906.00;;;;5107661;28;20222;-68
2023/08/09 09:12:53;;;;;;;7.53;3.00;;;;;22.40;96908.00;;;;5104991;28;20720;-68
2023/08/09 09:15:42;;;;;;;5.37;2.03;;;;;22.60;96904.00;;;;5104566;28;20249;-68
2023/08/09 09:18:41;;;;;;;3.40;2.00;;;;;22.60;96906.00;;;;5102516;28;20202;-68
2023/08/09 09:21:32;;;;;;;6.10;2.57;;;;;22.30;96912.00;;;;5107743;28;20219;-68
2023/08/09 09:24:22;;;;;;;3.77;1.90;;;;;22.30;96914.00;;;;5107528;28;20209;-68
2023/08/09 09:27:14;;;;;;;3.80;2.17;;;;;22.20;96915.00;;;;5108585;28;20279;-68
2023/08/09 09:30:05;;;;;;;3.77;2.27;;;;;22.50;96914.00;;;;5106453;28;20234;-68
2023/08/09 09:32:58;;;;;;;4.27;2.27;;;;;22.40;96922.00;;;;5106470;28;20701;-68
2023/08/09 09:35:48;;;;;;;6.63;2.60;;;;;22.20;96926.00;;;;5104437;28;20198;-68
2023/08/09 09:38:38;;;;;;;4.47;2.57;;;;;21.70;96930.00;;;;5109189;28;20233;-67
2023/08/09 09:41:29;;;;;;;4.27;2.53;;;;;21.90;96921.00;;;;5108202;28;20279;-68
2023/08/09 09:44:20;;;;;;;3.10;2.27;;;;;22.00;96923.00;;;;5106589;28;20194;-68
2023/08/09 09:47:10;;;;;;;6.83;2.23;;;;;22.20;96928.00;;;;5107498;28;20207;-68
2023/08/09 09:49:59;;;;;;;4.43;1.90;;;;;22.40;96930.00;;;;5097173;28;20602;-68
2023/08/09 09:52:50;;;;;;;3.47;2.40;;;;;22.60;96925.00;;;;5101626;28;20219;-68
2023/08/09 09:55:39;;;;;;;3.10;2.30;;;;;22.80;96929.00;;;;5101514;28;20206;-69
2023/08/09 09:58:28;;;;;;;3.67;2.00;;;;;23.40;96915.00;;;;5107230;28;20198;-69
2023/08/09 10:01:20;;;;;;;1.60;1.50;;;;;23.90;96915.00;;;;5107458;28;20218;-69
2023/08/09 10:04:12;;;;;;;3.43;2.17;;;;;24.10;96923.00;;;;5107401;28;20209;-68
2023/08/09 10:07:01;;;;;;;3.93;1.90;;;;;23.80;96909.00;;;;5096770;28;20214;-68
2023/08/09 10:09:53;;;;;;;2.87;1.23;;;;;23.90;96916.00;;;;5099543;28;20226;-69
2023/08/09 10:12:44;;;;;;;1.87;1.37;;;;;23.90;96923.00;;;;5106558;28;20933;-69
2023/08/09 10:15:35;;;;;;;5.90;1.50;;;;;23.90;96923.00;;;;5089080;28;20248;-68
2023/08/09 10:18:28;;;;;;;2.60;1.67;;;;;24.00;96927.00;;;;5097193;28;20609;-69
2023/08/09 10:21:19;;;;;;;5.00;1.87;;;;;24.10;96921.00;;;;5100880;28;20218;-68
2023/08/09 10:24:12;;;;;;;1.50;1.40;;;;;24.40;96925.00;;;;5104585;28;20199;-68
2023/08/09 10:27:05;;;;;;;6.33;5.10;;;;;24.00;96913.00;;;;5104792;28;20268;-68
2023/08/09 10:29:58;;;;;;;2.77;2.33;;;;;24.40;96912.00;;;;5104109;28;20229;-68
2023/08/09 10:32:52;;;;;;;5.03;3.37;;;;;24.60;96918.00;;;;5097670;28;20614;-68
2023/08/09 10:35:49;;;;;;;3.30;1.70;;;;;24.30;96922.00;;;;5106666;28;20385;-68
2023/08/09 10:38:44;;;;;;;3.13;1.53;;;;;24.50;96924.00;;;;5106058;28;20210;-68
2023/08/09 10:41:34;;;;;;;3.40;2.13;;;;;24.00;96933.00;;;;5101111;28;20248;-69
2023/08/09 10:44:39;;;;;;;6.67;3.17;;;;;24.40;96930.00;;;;5106535;28;20203;-68
2023/08/09 10:47:28;;;;;;;2.80;1.40;;;;;23.90;96935.00;;;;5105835;28;20692;-71
2023/08/09 10:50:19;;;;;;;3.07;1.50;;;;;24.20;96930.00;;;;5106307;28;20214;-71
2023/08/09 10:53:08;;;;;;;2.57;1.37;;;;;24.60;96936.00;;;;5107112;28;20596;-69
2023/08/09 10:55:58;;;;;;;2.03;1.80;;;;;24.00;96941.00;;;;5103988;28;20199;-70
2023/08/09 10:58:47;;;;;;;3.60;1.70;;;;;24.00;96938.00;;;;5110672;28;20583;-70
2023/08/09 11:01:38;;;;;;;2.00;1.50;;;;;23.40;96941.00;;;;5109268;28;20207;-71
2023/08/09 11:04:27;;;;;;;5.00;1.80;;;;;23.60;96937.00;;;;5107480;28;20210;-69
2023/08/09 11:07:20;;;;;;;2.63;1.90;;;;;23.30;96932.00;;;;5108164;28;20211;-71
2023/08/09 11:10:12;;;;;;;2.87;1.43;;;;;23.30;96937.00;;;;5107579;28;20241;-69
2023/08/09 11:13:06;;;;;;;2.93;1.90;;;;;22.80;96934.00;;;;5107243;28;20308;-71
2023/08/09 11:15:55;;;;;;;4.00;2.17;;;;;22.60;96927.00;;;;5107704;28;20252;-70
2023/08/09 11:18:45;;;;;;;2.80;1.97;;;;;22.90;96936.00;;;;5105407;28;20217;-69
2023/08/09 11:21:41;;;;;;;3.40;1.70;;;;;22.60;96936.00;;;;5109854;28;20677;-69
2023/08/09 11:24:30;;;;;;;2.63;1.93;;;;;22.50;96943.00;;;;5110429;28;20214;-69
2023/08/09 11:27:19;;;;;;;1.93;1.70;;;;;22.20;96952.00;;;;5106165;28;20196;-69
2023/08/09 11:30:09;;;;;;;7.57;2.33;;;;;22.00;96964.00;;;;5109168;28;20230;-69
2023/08/09 11:33:00;;;;;;;2.13;1.60;;;;;21.80;96962.00;;;;5102392;28;20249;-68
2023/08/09 11:35:50;;;;;;;3.00;2.10;;;;;21.70;96967.00;;;;5109108;28;20202;-68
2023/08/09 11:38:39;;;;;;;3.40;1.90;;;;;21.50;96964.00;;;;5105015;28;20591;-69
2023/08/09 11:41:35;;;;;;;2.77;1.87;;;;;21.50;96967.00;;;;5110120;28;20377;-68
2023/08/09 11:44:27;;;;;;;4.67;2.00;;;;;21.20;96961.00;;;;5107964;28;20190;-69
2023/08/09 11:47:16;;;;;;;3.93;1.80;;;;;21.10;96965.00;;;;5107791;28;20218;-69
2023/08/09 11:50:19;;;;;;;2.90;1.73;;;;;20.90;96964.00;;;;5107506;28;20233;-68
2023/08/09 11:53:09;;;;;;;3.57;1.93;;;;;21.10;96959.00;;;;5101514;28;20222;-68
2023/08/09 11:56:02;;;;;;;4.03;2.23;;;;;21.10;96958.00;;;;5105550;28;20199;-68
2023/08/09 11:58:53;;;;;;;6.17;2.23;;;;;21.10;96966.00;;;;5111254;27;20208;-68
2023/08/09 12:01:46;;;;;;;4.70;2.30;;;;;20.70;96968.00;;;;5104448;28;20198;-69
2023/08/09 12:04:38;;;;;;;2.47;1.70;;;;;20.70;96975.00;;;;5110156;28;20214;-68
2023/08/09 12:07:27;;;;;;;4.60;2.37;;;;;20.70;96975.00;;;;5109902;28;20205;-68
2023/08/09 12:10:22;;;;;;;2.77;2.43;;;;;20.80;96977.00;;;;5104913;22;20247;-83
2023/08/09 12:13:11;;;;;;;2.40;2.00;;;;;20.70;96977.00;;;;5059501;28;20215;-83
2023/08/09 12:16:06;;;;;;;2.80;1.70;;;;;20.40;96990.00;;;;5055571;28;20212;-83
2023/08/09 12:18:55;;;;;;;3.73;2.13;;;;;20.50;96982.00;;;;5051719;28;20201;-83
2023/08/09 12:21:44;;;;;;;3.53;2.20;;;;;20.40;96980.00;;;;5048678;28;20235;-83
2023/08/09 12:24:33;;;;;;;4.50;2.00;;;;;20.30;96984.00;;;;5041439;28;20192;-83
2023/08/09 12:27:23;;;;;;;2.53;2.30;;;;;20.60;96984.00;;;;5050769;28;20201;-83
2023/08/09 12:30:14;;;;;;;3.80;2.27;;;;;20.60;96975.00;;;;5042332;28;20376;-83
2023/08/09 12:33:03;;;;;;;2.10;1.90;;;;;20.70;96972.00;;;;5054983;28;20578;-84
2023/08/09 12:35:52;;;;;;;3.63;1.60;;;;;20.60;96977.00;;;;5044105;28;20204;-83
2023/08/09 12:38:41;;;;;;;1.83;1.40;;;;;20.50;96981.00;;;;5042395;28;20677;-83
2023/08/09 12:41:30;;;;;;;2.17;1.67;;;;;20.50;96987.00;;;;5041353;28;20607;-84
2023/08/09 12:44:21;;;;;;;2.57;2.37;;;;;20.50;96984.00;;;;5047777;28;20212;-83
2023/08/09 12:47:10;;;;;;;2.40;1.43;;;;;20.40;96985.00;;;;5055079;28;20223;-82
2023/08/09 12:50:00;;;;;;;2.07;1.77;;;;;20.50;96982.00;;;;5049730;28;20227;-83
2023/08/09 12:52:49;;;;;;;3.37;1.67;;;;;20.60;96982.00;;;;5042026;28;20696;-83
2023/08/09 12:55:43;;;;;;;2.27;2.07;;;;;20.40;96986.00;;;;5053058;28;20196;-83
2023/08/09 12:58:32;;;;;;;2.33;1.93;;;;;20.40;96986.00;;;;5051811;28;20196;-83
2023/08/09 13:01:23;;;;;;;2.00;1.90;;;;;20.40;96979.00;;;;5038862;28;20228;-83
2023/08/09 13:04:13;;;;;;;3.10;2.00;;;;;20.40;96985.00;;;;5040664;28;20197;-82
2023/08/09 13:07:02;;;;;;;3.67;2.10;;;;;20.40;96976.00;;;;5054902;28;20204;-83
2023/08/09 13:09:51;;;;;;;2.47;2.27;;;;;20.50;96972.00;;;;5051115;28;20200;-83
2023/08/09 13:12:41;;;;;;;4.23;2.53;;;;;20.40;96974.00;;;;5050453;28;20203;-83
2023/08/09 13:15:30;;;;;;;3.80;2.20;;;;;20.80;96972.00;;;;5052451;28;20200;-83
2023/08/09 13:18:20;;;;;;;2.60;2.10;;;;;20.80;96963.00;;;;5046518;28;20209;-83
2023/08/09 13:21:11;;;;;;;3.03;2.07;;;;;21.10;96977.00;;;;5049613;28;20225;-83
2023/08/09 13:24:01;;;;;;;1.70;1.60;;;;;21.00;96969.00;;;;5051262;28;20204;-83
2023/08/09 13:26:50;;;;;;;2.80;2.13;;;;;21.20;96968.00;;;;5052122;28;20208;-84
2023/08/09 13:29:41;;;;;;;3.73;2.50;;;;;21.20;96969.00;;;;5045977;28;20209;-83
2023/08/09 13:32:30;;;;;;;2.97;2.00;;;;;21.20;96956.00;;;;5045409;28;20201;-84
2023/08/09 13:35:20;;;;;;;2.40;2.13;;;;;21.40;96948.00;;;;5044894;28;20216;-83
2023/08/09 13:38:16;;;;;;;3.20;1.97;;;;;21.80;96959.00;;;;5049759;28;20637;-83
2023/08/09 13:41:06;;;;;;;2.50;2.30;;;;;22.00;96944.00;;;;5053226;28;20715;-84
2023/08/09 13:43:55;;;;;;;2.83;2.07;;;;;22.10;96942.00;;;;5053256;28;20207;-83
2023/08/09 13:46:44;;;;;;;3.43;1.97;;;;;22.80;96935.00;;;;5049656;28;20595;-84
2023/08/09 13:49:33;;;;;;;3.17;2.40;;;;;23.80;96908.00;;;;5053766;28;20203;-84
2023/08/09 13:52:23;;;;;;;2.00;1.80;;;;;25.30;96903.00;;;;5043181;28;20201;-85
2023/08/09 13:55:12;;;;;;;4.53;2.00;;;;;25.60;96914.00;;;;5045511;28;20225;-86
2023/08/09 13:58:01;;;;;;;2.27;1.40;;;;;25.60;96916.00;;;;5054178;28;20208;-86
2023/08/09 14:00:50;;;;;;;1.70;1.53;;;;;26.50;96922.00;;;;5045393;28;20232;-86
2023/08/09 14:03:40;;;;;;;2.07;1.40;;;;;25.60;96959.00;;;;5043267;28;20197;-86
2023/08/09 14:06:29;;;;;;;4.73;1.70;;;;;25.70;96961.00;;;;5040754;28;20213;-85
2023/08/09 14:09:19;;;;;;;2.57;1.87;;;;;25.10;96960.00;;;;5047261;28;20698;-84
2023/08/09 14:12:10;;;;;;;9.73;2.50;;;;;24.90;96948.00;;;;5048148;28;20219;-86